Washington, DC (20029)

4:21 AM EST on December 10, 2016 (GMT -0500)
The Washington Post | | Change Station

Elev 151 ft 38.90 °N, 77.03 °W | Updated 25 seconds ago

Partly Cloudy
Partly Cloudy
31.6 °F
Feels Like 28 °F
N
4.0
Wind Variable Wind from WNW
Gusts 14.0 mph

Today
High -- | Low -- °F
--% Chance of Precip.
Yesterday
High -- | Low -- °F
Precip. -- in
Pressure 30.47 in
Visibility 10.0 miles
Clouds Scattered Clouds 18000 ft
Windchill 28 °F
Dew Point 17 °F
Humidity 55%
Rainfall 0.00 in
Snow Depth Not available.
7:16 AM 4:46 PM
Waxing Gibbous, 82% visible
METAR KDCA 100852Z 26006KT 10SM SCT180 M01/M09 A3047 RMK AO2 SLP318 T10061089 52012
Pressure 30.47 in
Visibility 10.0 miles
Clouds Scattered Clouds 18000 ft
Windchill 28 °F
Dew Point 17 °F
Humidity 55%
Rainfall 0.00 in
Snow Depth Not available.
7:16 AM 4:46 PM
Waxing Gibbous, 82% visible
METAR KDCA 100852Z 26006KT 10SM SCT180 M01/M09 A3047 RMK AO2 SLP318 T10061089 52012

10-Day Weather Forecast

Almanac

Astronomy

Dec. 10, 2016 Rise Set
Actual Time
Civil Twilight
Nautical Twilight
Astronomical Twilight
Moon
Length of Visible Light
Length of Day
Tomorrow will be .
, % of the Moon is Illuminated

Today's Extremes

State Highs State Lows

Community

WunderPhotos

Upload Photos

1,956,538 photos uploaded!

WunderBlog® & News

Nearby

Air Quality

  Air Quality AQ Index Pollutant
Not available.

Snow Depth

Station Depth Elevation

Earthquake Activity

City Distance Mag. Time & Date
Minimum magnitude displayed is 2.5.

Coastal Water Temperatures

Place Temperature

Stations

Nearby Weather Stations

Station Location Temp. Windchill Dew Point Humidity Wind Precip. Elev Updated Type
                   

Watches & Warnings

There are currently no watches in effect.